sensor_id;sensor_type;location;lat;lon;timestamp;P1;durP1;ratioP1;P2;durP2;ratioP2
63008;SDS011;49099;28.428;-16.488;2022-08-01T00:00:19;21.13;;;3.72;;
63008;SDS011;49099;28.428;-16.488;2022-08-01T00:02:46;22.52;;;4.10;;
63008;SDS011;49099;28.428;-16.488;2022-08-01T00:05:13;17.92;;;3.83;;
63008;SDS011;49099;28.428;-16.488;2022-08-01T00:07:41;17.23;;;4.18;;
63008;SDS011;49099;28.428;-16.488;2022-08-01T00:10:09;14.07;;;4.00;;
63008;SDS011;49099;28.428;-16.488;2022-08-01T00:12:39;16.92;;;4.35;;
63008;SDS011;49099;28.428;-16.488;2022-08-01T00:15:08;17.58;;;4.72;;
63008;SDS011;49099;28.428;-16.488;2022-08-01T00:17:36;16.27;;;5.00;;
63008;SDS011;49099;28.428;-16.488;2022-08-01T00:20:04;20.55;;;5.72;;
63008;SDS011;49099;28.428;-16.488;2022-08-01T00:22:33;18.02;;;5.28;;
63008;SDS011;49099;28.428;-16.488;2022-08-01T00:25:01;18.58;;;5.15;;
63008;SDS011;49099;28.428;-16.488;2022-08-01T00:27:30;19.85;;;4.85;;
63008;SDS011;49099;28.428;-16.488;2022-08-01T00:30:02;22.63;;;5.13;;
63008;SDS011;49099;28.428;-16.488;2022-08-01T00:32:40;14.00;;;4.22;;
63008;SDS011;49099;28.428;-16.488;2022-08-01T00:35:09;18.65;;;6.25;;
63008;SDS011;49099;28.428;-16.488;2022-08-01T00:37:37;17.92;;;4.63;;
63008;SDS011;49099;28.428;-16.488;2022-08-01T00:40:04;13.85;;;3.88;;
63008;SDS011;49099;28.428;-16.488;2022-08-01T00:42:32;14.10;;;5.13;;
63008;SDS011;49099;28.428;-16.488;2022-08-01T00:44:59;18.27;;;4.43;;
63008;SDS011;49099;28.428;-16.488;2022-08-01T00:47:26;13.55;;;4.10;;
63008;SDS011;49099;28.428;-16.488;2022-08-01T00:49:54;16.02;;;4.03;;
63008;SDS011;49099;28.428;-16.488;2022-08-01T00:52:21;16.17;;;3.88;;
63008;SDS011;49099;28.428;-16.488;2022-08-01T00:54:48;19.33;;;4.70;;
63008;SDS011;49099;28.428;-16.488;2022-08-01T00:57:15;11.40;;;3.65;;
63008;SDS011;49099;28.428;-16.488;2022-08-01T01:00:03;18.52;;;5.10;;
63008;SDS011;49099;28.428;-16.488;2022-08-01T01:02:31;13.68;;;4.00;;
63008;SDS011;49099;28.428;-16.488;2022-08-01T01:04:59;20.92;;;4.70;;
63008;SDS011;49099;28.428;-16.488;2022-08-01T01:10:57;18.02;;;4.15;;
63008;SDS011;49099;28.428;-16.488;2022-08-01T01:16:19;18.38;;;3.25;;
63008;SDS011;49099;28.428;-16.488;2022-08-01T01:18:53;26.30;;;3.80;;
63008;SDS011;49099;28.428;-16.488;2022-08-01T01:23:54;21.55;;;4.22;;
63008;SDS011;49099;28.428;-16.488;2022-08-01T01:32:30;15.93;;;3.60;;
63008;SDS011;49099;28.428;-16.488;2022-08-01T01:35:02;18.60;;;3.78;;
63008;SDS011;49099;28.428;-16.488;2022-08-01T01:37:35;26.42;;;3.63;;
63008;SDS011;49099;28.428;-16.488;2022-08-01T01:40:06;23.58;;;3.92;;
63008;SDS011;49099;28.428;-16.488;2022-08-01T01:42:36;21.70;;;3.75;;
63008;SDS011;49099;28.428;-16.488;2022-08-01T01:45:05;24.75;;;3.97;;
63008;SDS011;49099;28.428;-16.488;2022-08-01T01:47:33;18.23;;;3.50;;
63008;SDS011;49099;28.428;-16.488;2022-08-01T01:50:02;17.33;;;3.33;;
63008;SDS011;49099;28.428;-16.488;2022-08-01T01:52:30;30.40;;;4.22;;
63008;SDS011;49099;28.428;-16.488;2022-08-01T01:54:59;27.00;;;4.18;;
63008;SDS011;49099;28.428;-16.488;2022-08-01T01:57:29;20.70;;;4.03;;
63008;SDS011;49099;28.428;-16.488;2022-08-01T01:59:59;19.75;;;3.85;;
63008;SDS011;49099;28.428;-16.488;2022-08-01T02:02:34;23.65;;;3.80;;
63008;SDS011;49099;28.428;-16.488;2022-08-01T02:05:04;31.70;;;4.25;;
63008;SDS011;49099;28.428;-16.488;2022-08-01T02:07:33;26.27;;;3.88;;
63008;SDS011;49099;28.428;-16.488;2022-08-01T02:10:02;26.17;;;3.88;;
63008;SDS011;49099;28.428;-16.488;2022-08-01T02:12:33;21.95;;;3.67;;
63008;SDS011;49099;28.428;-16.488;2022-08-01T02:15:03;23.65;;;3.85;;
63008;SDS011;49099;28.428;-16.488;2022-08-01T02:17:32;20.70;;;3.45;;
63008;SDS011;49099;28.428;-16.488;2022-08-01T02:20:04;19.90;;;3.60;;
63008;SDS011;49099;28.428;-16.488;2022-08-01T02:22:34;23.15;;;3.80;;
63008;SDS011;49099;28.428;-16.488;2022-08-01T02:25:10;21.45;;;3.10;;
63008;SDS011;49099;28.428;-16.488;2022-08-01T02:28:07;26.70;;;4.07;;
63008;SDS011;49099;28.428;-16.488;2022-08-01T02:30:46;19.55;;;4.13;;
63008;SDS011;49099;28.428;-16.488;2022-08-01T02:33:16;19.10;;;3.60;;
63008;SDS011;49099;28.428;-16.488;2022-08-01T02:35:47;25.15;;;4.20;;
63008;SDS011;49099;28.428;-16.488;2022-08-01T02:38:45;17.13;;;3.33;;
63008;SDS011;49099;28.428;-16.488;2022-08-01T02:41:19;25.85;;;3.78;;
63008;SDS011;49099;28.428;-16.488;2022-08-01T02:43:52;26.10;;;3.95;;
63008;SDS011;49099;28.428;-16.488;2022-08-01T02:46:29;22.23;;;3.47;;
63008;SDS011;49099;28.428;-16.488;2022-08-01T02:49:04;21.40;;;3.83;;
63008;SDS011;49099;28.428;-16.488;2022-08-01T02:51:35;24.15;;;4.28;;
63008;SDS011;49099;28.428;-16.488;2022-08-01T02:54:04;21.58;;;3.70;;
63008;SDS011;49099;28.428;-16.488;2022-08-01T02:56:33;25.23;;;3.78;;
63008;SDS011;49099;28.428;-16.488;2022-08-01T02:59:07;25.25;;;3.90;;
63008;SDS011;49099;28.428;-16.488;2022-08-01T03:01:57;23.73;;;4.10;;
63008;SDS011;49099;28.428;-16.488;2022-08-01T03:04:28;25.50;;;3.88;;
63008;SDS011;49099;28.428;-16.488;2022-08-01T03:06:56;20.90;;;4.03;;
63008;SDS011;49099;28.428;-16.488;2022-08-01T03:09:25;25.83;;;3.78;;
63008;SDS011;49099;28.428;-16.488;2022-08-01T03:11:54;29.80;;;4.60;;
63008;SDS011;49099;28.428;-16.488;2022-08-01T03:14:24;27.55;;;3.95;;
63008;SDS011;49099;28.428;-16.488;2022-08-01T03:16:53;22.48;;;3.50;;
63008;SDS011;49099;28.428;-16.488;2022-08-01T03:19:24;20.35;;;3.65;;
63008;SDS011;49099;28.428;-16.488;2022-08-01T03:21:52;15.85;;;3.72;;
63008;SDS011;49099;28.428;-16.488;2022-08-01T03:24:22;14.00;;;3.03;;
63008;SDS011;49099;28.428;-16.488;2022-08-01T03:26:50;32.35;;;4.28;;
63008;SDS011;49099;28.428;-16.488;2022-08-01T03:29:19;20.95;;;3.95;;
63008;SDS011;49099;28.428;-16.488;2022-08-01T03:31:51;18.38;;;3.47;;
63008;SDS011;49099;28.428;-16.488;2022-08-01T03:34:19;24.75;;;3.78;;
63008;SDS011;49099;28.428;-16.488;2022-08-01T03:36:55;22.45;;;3.92;;
63008;SDS011;49099;28.428;-16.488;2022-08-01T03:39:28;25.75;;;4.07;;
63008;SDS011;49099;28.428;-16.488;2022-08-01T03:42:01;27.60;;;4.65;;
63008;SDS011;49099;28.428;-16.488;2022-08-01T03:44:35;17.58;;;3.45;;
63008;SDS011;49099;28.428;-16.488;2022-08-01T03:47:06;14.27;;;3.17;;
63008;SDS011;49099;28.428;-16.488;2022-08-01T03:49:36;28.27;;;4.22;;
63008;SDS011;49099;28.428;-16.488;2022-08-01T03:52:08;29.13;;;4.00;;
63008;SDS011;49099;28.428;-16.488;2022-08-01T03:54:42;28.63;;;4.03;;
63008;SDS011;49099;28.428;-16.488;2022-08-01T03:57:13;18.98;;;3.50;;
63008;SDS011;49099;28.428;-16.488;2022-08-01T04:00:02;27.48;;;3.92;;
63008;SDS011;49099;28.428;-16.488;2022-08-01T04:02:34;21.13;;;4.00;;
63008;SDS011;49099;28.428;-16.488;2022-08-01T04:05:02;15.57;;;3.53;;
63008;SDS011;49099;28.428;-16.488;2022-08-01T04:07:31;20.13;;;3.83;;
63008;SDS011;49099;28.428;-16.488;2022-08-01T04:09:59;21.83;;;3.65;;
63008;SDS011;49099;28.428;-16.488;2022-08-01T04:12:26;31.52;;;4.55;;
63008;SDS011;49099;28.428;-16.488;2022-08-01T04:14:53;24.92;;;4.32;;
63008;SDS011;49099;28.428;-16.488;2022-08-01T04:17:20;21.05;;;4.20;;
63008;SDS011;49099;28.428;-16.488;2022-08-01T04:19:48;21.33;;;3.47;;
63008;SDS011;49099;28.428;-16.488;2022-08-01T04:22:15;19.13;;;3.67;;
63008;SDS011;49099;28.428;-16.488;2022-08-01T04:24:44;19.98;;;3.47;;
63008;SDS011;49099;28.428;-16.488;2022-08-01T04:27:23;16.90;;;3.42;;
63008;SDS011;49099;28.428;-16.488;2022-08-01T04:30:16;17.13;;;3.50;;
63008;SDS011;49099;28.428;-16.488;2022-08-01T04:32:49;19.70;;;3.50;;
63008;SDS011;49099;28.428;-16.488;2022-08-01T04:35:19;17.95;;;3.63;;
63008;SDS011;49099;28.428;-16.488;2022-08-01T04:38:08;24.15;;;3.60;;
63008;SDS011;49099;28.428;-16.488;2022-08-01T04:40:37;21.50;;;3.85;;
63008;SDS011;49099;28.428;-16.488;2022-08-01T04:43:04;25.38;;;3.70;;
63008;SDS011;49099;28.428;-16.488;2022-08-01T04:45:32;27.65;;;3.60;;
63008;SDS011;49099;28.428;-16.488;2022-08-01T04:48:00;22.05;;;4.32;;
63008;SDS011;49099;28.428;-16.488;2022-08-01T04:50:28;18.83;;;3.85;;
63008;SDS011;49099;28.428;-16.488;2022-08-01T04:52:55;19.33;;;3.33;;
63008;SDS011;49099;28.428;-16.488;2022-08-01T04:55:23;19.95;;;3.58;;
63008;SDS011;49099;28.428;-16.488;2022-08-01T04:57:50;20.77;;;4.05;;
63008;SDS011;49099;28.428;-16.488;2022-08-01T05:00:17;22.23;;;4.13;;
63008;SDS011;49099;28.428;-16.488;2022-08-01T05:02:44;18.75;;;3.38;;
63008;SDS011;49099;28.428;-16.488;2022-08-01T05:05:11;18.75;;;3.88;;
63008;SDS011;49099;28.428;-16.488;2022-08-01T05:07:39;21.48;;;3.95;;
63008;SDS011;49099;28.428;-16.488;2022-08-01T05:10:10;16.67;;;3.20;;
63008;SDS011;49099;28.428;-16.488;2022-08-01T05:12:38;24.42;;;3.97;;
63008;SDS011;49099;28.428;-16.488;2022-08-01T05:15:05;20.67;;;4.10;;
63008;SDS011;49099;28.428;-16.488;2022-08-01T05:17:40;23.08;;;4.20;;
63008;SDS011;49099;28.428;-16.488;2022-08-01T05:20:09;22.60;;;3.60;;
63008;SDS011;49099;28.428;-16.488;2022-08-01T05:22:38;19.77;;;3.80;;
63008;SDS011;49099;28.428;-16.488;2022-08-01T05:25:06;23.05;;;3.72;;
63008;SDS011;49099;28.428;-16.488;2022-08-01T05:27:33;19.08;;;3.65;;
63008;SDS011;49099;28.428;-16.488;2022-08-01T05:30:07;19.13;;;4.13;;
63008;SDS011;49099;28.428;-16.488;2022-08-01T05:32:35;19.98;;;3.90;;
63008;SDS011;49099;28.428;-16.488;2022-08-01T05:35:02;22.85;;;4.20;;
63008;SDS011;49099;28.428;-16.488;2022-08-01T05:37:30;19.55;;;3.35;;
63008;SDS011;49099;28.428;-16.488;2022-08-01T05:39:57;21.20;;;4.32;;
63008;SDS011;49099;28.428;-16.488;2022-08-01T05:42:24;18.55;;;3.08;;
63008;SDS011;49099;28.428;-16.488;2022-08-01T05:44:51;23.02;;;4.13;;
63008;SDS011;49099;28.428;-16.488;2022-08-01T05:47:19;19.30;;;4.70;;
63008;SDS011;49099;28.428;-16.488;2022-08-01T05:49:46;22.65;;;4.57;;
63008;SDS011;49099;28.428;-16.488;2022-08-01T05:52:13;22.83;;;4.90;;
63008;SDS011;49099;28.428;-16.488;2022-08-01T05:54:40;24.25;;;4.82;;
63008;SDS011;49099;28.428;-16.488;2022-08-01T05:57:08;22.70;;;5.85;;
63008;SDS011;49099;28.428;-16.488;2022-08-01T05:59:36;20.83;;;5.80;;
63008;SDS011;49099;28.428;-16.488;2022-08-01T06:02:03;18.10;;;4.68;;
63008;SDS011;49099;28.428;-16.488;2022-08-01T06:04:31;23.92;;;6.90;;
63008;SDS011;49099;28.428;-16.488;2022-08-01T06:06:58;20.73;;;6.13;;
63008;SDS011;49099;28.428;-16.488;2022-08-01T06:09:25;26.35;;;7.55;;
63008;SDS011;49099;28.428;-16.488;2022-08-01T06:11:52;18.95;;;6.20;;
63008;SDS011;49099;28.428;-16.488;2022-08-01T06:14:20;21.05;;;7.32;;
63008;SDS011;49099;28.428;-16.488;2022-08-01T06:16:47;24.67;;;6.40;;
63008;SDS011;49099;28.428;-16.488;2022-08-01T06:19:14;16.30;;;5.18;;
63008;SDS011;49099;28.428;-16.488;2022-08-01T06:21:41;19.38;;;5.90;;
63008;SDS011;49099;28.428;-16.488;2022-08-01T06:24:08;22.63;;;5.25;;
63008;SDS011;49099;28.428;-16.488;2022-08-01T06:26:35;16.65;;;4.75;;
63008;SDS011;49099;28.428;-16.488;2022-08-01T06:29:03;19.75;;;4.45;;
63008;SDS011;49099;28.428;-16.488;2022-08-01T06:31:31;20.20;;;4.40;;
63008;SDS011;49099;28.428;-16.488;2022-08-01T06:33:59;13.43;;;3.63;;
63008;SDS011;49099;28.428;-16.488;2022-08-01T06:36:26;13.68;;;4.22;;
63008;SDS011;49099;28.428;-16.488;2022-08-01T06:38:53;17.27;;;3.58;;
63008;SDS011;49099;28.428;-16.488;2022-08-01T06:41:20;20.42;;;4.00;;
63008;SDS011;49099;28.428;-16.488;2022-08-01T06:43:48;17.35;;;3.65;;
63008;SDS011;49099;28.428;-16.488;2022-08-01T06:46:15;15.48;;;3.53;;
63008;SDS011;49099;28.428;-16.488;2022-08-01T06:48:43;13.55;;;3.65;;
63008;SDS011;49099;28.428;-16.488;2022-08-01T06:51:10;22.52;;;3.75;;
63008;SDS011;49099;28.428;-16.488;2022-08-01T06:53:40;16.90;;;3.50;;
63008;SDS011;49099;28.428;-16.488;2022-08-01T06:56:09;14.25;;;3.65;;
63008;SDS011;49099;28.428;-16.488;2022-08-01T06:58:36;14.63;;;3.78;;
63008;SDS011;49099;28.428;-16.488;2022-08-01T07:01:04;15.10;;;4.30;;
63008;SDS011;49099;28.428;-16.488;2022-08-01T07:03:35;16.17;;;3.90;;
63008;SDS011;49099;28.428;-16.488;2022-08-01T07:06:23;18.73;;;4.50;;
63008;SDS011;49099;28.428;-16.488;2022-08-01T07:08:52;24.63;;;5.30;;
63008;SDS011;49099;28.428;-16.488;2022-08-01T07:11:20;16.42;;;4.88;;
63008;SDS011;49099;28.428;-16.488;2022-08-01T07:13:48;15.82;;;4.20;;
63008;SDS011;49099;28.428;-16.488;2022-08-01T07:16:16;14.15;;;4.18;;
63008;SDS011;49099;28.428;-16.488;2022-08-01T07:18:43;18.50;;;4.03;;
63008;SDS011;49099;28.428;-16.488;2022-08-01T07:21:10;23.38;;;4.78;;
63008;SDS011;49099;28.428;-16.488;2022-08-01T07:23:58;11.48;;;3.70;;
63008;SDS011;49099;28.428;-16.488;2022-08-01T07:26:25;11.70;;;3.97;;
63008;SDS011;49099;28.428;-16.488;2022-08-01T07:28:53;10.48;;;3.58;;
63008;SDS011;49099;28.428;-16.488;2022-08-01T07:31:21;19.17;;;4.15;;
63008;SDS011;49099;28.428;-16.488;2022-08-01T07:33:52;14.02;;;3.53;;
63008;SDS011;49099;28.428;-16.488;2022-08-01T07:36:19;17.88;;;4.63;;
63008;SDS011;49099;28.428;-16.488;2022-08-01T07:38:47;18.77;;;3.70;;
63008;SDS011;49099;28.428;-16.488;2022-08-01T07:41:14;12.48;;;3.47;;
63008;SDS011;49099;28.428;-16.488;2022-08-01T07:43:41;14.77;;;3.60;;
63008;SDS011;49099;28.428;-16.488;2022-08-01T07:46:21;16.90;;;4.30;;
63008;SDS011;49099;28.428;-16.488;2022-08-01T07:48:48;15.40;;;4.25;;
63008;SDS011;49099;28.428;-16.488;2022-08-01T07:51:16;16.27;;;4.50;;
63008;SDS011;49099;28.428;-16.488;2022-08-01T07:53:43;18.45;;;3.58;;
63008;SDS011;49099;28.428;-16.488;2022-08-01T07:56:10;14.45;;;3.05;;
63008;SDS011;49099;28.428;-16.488;2022-08-01T07:58:37;16.80;;;3.67;;
63008;SDS011;49099;28.428;-16.488;2022-08-01T08:01:04;17.17;;;3.10;;
63008;SDS011;49099;28.428;-16.488;2022-08-01T08:03:32;26.55;;;4.18;;
63008;SDS011;49099;28.428;-16.488;2022-08-01T08:05:59;13.90;;;3.15;;
63008;SDS011;49099;28.428;-16.488;2022-08-01T08:08:26;17.25;;;4.10;;
63008;SDS011;49099;28.428;-16.488;2022-08-01T08:10:54;21.35;;;4.43;;
63008;SDS011;49099;28.428;-16.488;2022-08-01T08:13:21;17.38;;;4.13;;
63008;SDS011;49099;28.428;-16.488;2022-08-01T08:15:48;20.92;;;3.80;;
63008;SDS011;49099;28.428;-16.488;2022-08-01T08:18:15;16.42;;;3.63;;
63008;SDS011;49099;28.428;-16.488;2022-08-01T08:20:43;20.08;;;3.95;;
63008;SDS011;49099;28.428;-16.488;2022-08-01T08:23:10;19.33;;;3.47;;
63008;SDS011;49099;28.428;-16.488;2022-08-01T08:26:09;12.85;;;3.35;;
63008;SDS011;49099;28.428;-16.488;2022-08-01T08:28:39;17.85;;;3.70;;
63008;SDS011;49099;28.428;-16.488;2022-08-01T08:31:07;18.13;;;3.20;;
63008;SDS011;49099;28.428;-16.488;2022-08-01T08:33:51;16.23;;;3.38;;
63008;SDS011;49099;28.428;-16.488;2022-08-01T08:36:18;13.55;;;3.30;;
63008;SDS011;49099;28.428;-16.488;2022-08-01T08:38:45;24.02;;;3.83;;
63008;SDS011;49099;28.428;-16.488;2022-08-01T08:41:12;17.42;;;2.97;;
63008;SDS011;49099;28.428;-16.488;2022-08-01T08:43:46;27.77;;;4.30;;
63008;SDS011;49099;28.428;-16.488;2022-08-01T08:46:14;19.73;;;4.03;;
63008;SDS011;49099;28.428;-16.488;2022-08-01T08:48:42;17.58;;;3.17;;
63008;SDS011;49099;28.428;-16.488;2022-08-01T08:51:09;22.67;;;3.72;;
63008;SDS011;49099;28.428;-16.488;2022-08-01T08:53:41;25.15;;;4.28;;
63008;SDS011;49099;28.428;-16.488;2022-08-01T08:56:11;32.05;;;3.78;;
63008;SDS011;49099;28.428;-16.488;2022-08-01T08:58:40;21.15;;;3.63;;
63008;SDS011;49099;28.428;-16.488;2022-08-01T09:01:10;27.65;;;3.70;;
63008;SDS011;49099;28.428;-16.488;2022-08-01T09:03:39;26.58;;;3.80;;
63008;SDS011;49099;28.428;-16.488;2022-08-01T09:06:07;17.65;;;3.25;;
63008;SDS011;49099;28.428;-16.488;2022-08-01T09:08:34;20.35;;;3.58;;
63008;SDS011;49099;28.428;-16.488;2022-08-01T09:11:02;36.80;;;4.07;;
63008;SDS011;49099;28.428;-16.488;2022-08-01T09:13:30;26.08;;;3.90;;
63008;SDS011;49099;28.428;-16.488;2022-08-01T09:15:57;34.60;;;4.07;;
63008;SDS011;49099;28.428;-16.488;2022-08-01T09:18:35;26.52;;;3.60;;
63008;SDS011;49099;28.428;-16.488;2022-08-01T09:26:01;18.50;;;3.80;;
63008;SDS011;49099;28.428;-16.488;2022-08-01T09:28:29;20.48;;;3.22;;
63008;SDS011;49099;28.428;-16.488;2022-08-01T09:30:57;27.02;;;3.70;;
63008;SDS011;49099;28.428;-16.488;2022-08-01T09:33:24;20.73;;;3.83;;
63008;SDS011;49099;28.428;-16.488;2022-08-01T09:35:54;20.35;;;3.78;;
63008;SDS011;49099;28.428;-16.488;2022-08-01T09:38:23;24.60;;;3.72;;
63008;SDS011;49099;28.428;-16.488;2022-08-01T09:40:56;24.40;;;3.75;;
63008;SDS011;49099;28.428;-16.488;2022-08-01T09:43:25;24.65;;;3.67;;
63008;SDS011;49099;28.428;-16.488;2022-08-01T09:45:54;17.88;;;3.15;;
63008;SDS011;49099;28.428;-16.488;2022-08-01T09:48:23;18.80;;;3.40;;
63008;SDS011;49099;28.428;-16.488;2022-08-01T09:50:55;16.33;;;3.00;;
63008;SDS011;49099;28.428;-16.488;2022-08-01T09:53:44;19.95;;;3.35;;
63008;SDS011;49099;28.428;-16.488;2022-08-01T09:56:18;18.98;;;3.60;;
63008;SDS011;49099;28.428;-16.488;2022-08-01T09:58:58;22.13;;;3.75;;
63008;SDS011;49099;28.428;-16.488;2022-08-01T10:01:49;19.70;;;3.47;;
63008;SDS011;49099;28.428;-16.488;2022-08-01T10:04:17;23.63;;;3.53;;
63008;SDS011;49099;28.428;-16.488;2022-08-01T10:06:47;17.45;;;3.10;;
63008;SDS011;49099;28.428;-16.488;2022-08-01T10:09:38;17.20;;;3.20;;
63008;SDS011;49099;28.428;-16.488;2022-08-01T10:12:06;20.45;;;3.35;;
63008;SDS011;49099;28.428;-16.488;2022-08-01T10:14:41;23.08;;;3.42;;
63008;SDS011;49099;28.428;-16.488;2022-08-01T10:17:12;23.50;;;4.05;;
63008;SDS011;49099;28.428;-16.488;2022-08-01T10:19:44;21.30;;;3.42;;
63008;SDS011;49099;28.428;-16.488;2022-08-01T10:22:13;17.77;;;3.20;;
63008;SDS011;49099;28.428;-16.488;2022-08-01T10:24:44;14.05;;;2.80;;
63008;SDS011;49099;28.428;-16.488;2022-08-01T10:27:15;14.57;;;3.00;;
63008;SDS011;49099;28.428;-16.488;2022-08-01T10:30:01;19.02;;;3.20;;
63008;SDS011;49099;28.428;-16.488;2022-08-01T10:32:48;19.20;;;3.33;;
63008;SDS011;49099;28.428;-16.488;2022-08-01T10:35:17;20.08;;;3.50;;
63008;SDS011;49099;28.428;-16.488;2022-08-01T10:38:05;22.33;;;3.67;;
63008;SDS011;49099;28.428;-16.488;2022-08-01T10:40:39;16.95;;;3.40;;
63008;SDS011;49099;28.428;-16.488;2022-08-01T10:43:11;17.98;;;3.35;;
63008;SDS011;49099;28.428;-16.488;2022-08-01T10:45:47;14.60;;;2.65;;
63008;SDS011;49099;28.428;-16.488;2022-08-01T10:48:20;16.10;;;3.45;;
63008;SDS011;49099;28.428;-16.488;2022-08-01T10:50:55;12.27;;;2.83;;
63008;SDS011;49099;28.428;-16.488;2022-08-01T10:53:27;18.27;;;3.08;;
63008;SDS011;49099;28.428;-16.488;2022-08-01T10:58:37;22.10;;;3.88;;
63008;SDS011;49099;28.428;-16.488;2022-08-01T11:11:31;15.15;;;3.45;;
63008;SDS011;49099;28.428;-16.488;2022-08-01T11:14:03;24.90;;;3.60;;
63008;SDS011;49099;28.428;-16.488;2022-08-01T11:16:39;21.92;;;3.60;;
63008;SDS011;49099;28.428;-16.488;2022-08-01T11:19:07;19.73;;;3.53;;
63008;SDS011;49099;28.428;-16.488;2022-08-01T11:27:20;14.15;;;3.03;;
63008;SDS011;49099;28.428;-16.488;2022-08-01T11:32:54;27.90;;;3.83;;
63008;SDS011;49099;28.428;-16.488;2022-08-01T11:35:37;17.45;;;3.00;;
63008;SDS011;49099;28.428;-16.488;2022-08-01T11:38:24;16.75;;;3.55;;
63008;SDS011;49099;28.428;-16.488;2022-08-01T11:41:10;17.75;;;2.80;;
63008;SDS011;49099;28.428;-16.488;2022-08-01T11:50:04;14.30;;;2.90;;
63008;SDS011;49099;28.428;-16.488;2022-08-01T11:52:16;16.23;;;3.60;;
63008;SDS011;49099;28.428;-16.488;2022-08-01T11:54:54;24.92;;;3.80;;
63008;SDS011;49099;28.428;-16.488;2022-08-01T11:57:36;20.60;;;2.97;;
63008;SDS011;49099;28.428;-16.488;2022-08-01T12:02:42;28.45;;;3.28;;
63008;SDS011;49099;28.428;-16.488;2022-08-01T12:05:15;20.00;;;3.60;;
63008;SDS011;49099;28.428;-16.488;2022-08-01T12:07:50;29.45;;;3.50;;
63008;SDS011;49099;28.428;-16.488;2022-08-01T12:10:19;36.67;;;3.90;;
63008;SDS011;49099;28.428;-16.488;2022-08-01T12:12:49;16.08;;;3.13;;
63008;SDS011;49099;28.428;-16.488;2022-08-01T12:15:19;31.25;;;3.42;;
63008;SDS011;49099;28.428;-16.488;2022-08-01T12:17:50;16.27;;;3.30;;
63008;SDS011;49099;28.428;-16.488;2022-08-01T12:20:25;20.42;;;3.45;;
63008;SDS011;49099;28.428;-16.488;2022-08-01T12:22:58;12.48;;;2.70;;
63008;SDS011;49099;28.428;-16.488;2022-08-01T12:25:27;19.02;;;2.88;;
63008;SDS011;49099;28.428;-16.488;2022-08-01T12:27:54;20.13;;;3.58;;
63008;SDS011;49099;28.428;-16.488;2022-08-01T12:30:25;19.50;;;3.03;;
63008;SDS011;49099;28.428;-16.488;2022-08-01T12:32:54;16.50;;;3.65;;
63008;SDS011;49099;28.428;-16.488;2022-08-01T12:35:22;15.40;;;3.45;;
63008;SDS011;49099;28.428;-16.488;2022-08-01T12:37:51;15.65;;;3.38;;
63008;SDS011;49099;28.428;-16.488;2022-08-01T12:40:21;16.50;;;3.03;;
63008;SDS011;49099;28.428;-16.488;2022-08-01T12:42:51;20.15;;;3.20;;
63008;SDS011;49099;28.428;-16.488;2022-08-01T12:45:25;26.90;;;4.03;;
63008;SDS011;49099;28.428;-16.488;2022-08-01T12:50:22;18.67;;;3.55;;
63008;SDS011;49099;28.428;-16.488;2022-08-01T12:52:51;18.45;;;3.03;;
63008;SDS011;49099;28.428;-16.488;2022-08-01T12:55:19;16.20;;;2.80;;
63008;SDS011;49099;28.428;-16.488;2022-08-01T12:58:06;26.77;;;3.17;;
63008;SDS011;49099;28.428;-16.488;2022-08-01T13:00:41;26.42;;;3.67;;
63008;SDS011;49099;28.428;-16.488;2022-08-01T13:05:42;25.42;;;3.70;;
63008;SDS011;49099;28.428;-16.488;2022-08-01T13:10:59;24.50;;;3.80;;
63008;SDS011;49099;28.428;-16.488;2022-08-01T13:13:43;32.33;;;3.40;;
63008;SDS011;49099;28.428;-16.488;2022-08-01T13:16:14;25.00;;;3.25;;
63008;SDS011;49099;28.428;-16.488;2022-08-01T13:19:03;27.73;;;3.85;;
63008;SDS011;49099;28.428;-16.488;2022-08-01T13:21:31;21.10;;;3.35;;
63008;SDS011;49099;28.428;-16.488;2022-08-01T13:24:22;18.63;;;3.55;;
63008;SDS011;49099;28.428;-16.488;2022-08-01T13:29:31;17.58;;;3.17;;
63008;SDS011;49099;28.428;-16.488;2022-08-01T13:32:19;17.08;;;2.85;;
63008;SDS011;49099;28.428;-16.488;2022-08-01T13:35:05;17.65;;;3.70;;
63008;SDS011;49099;28.428;-16.488;2022-08-01T13:37:36;16.20;;;3.38;;
63008;SDS011;49099;28.428;-16.488;2022-08-01T13:40:05;15.73;;;3.00;;
63008;SDS011;49099;28.428;-16.488;2022-08-01T13:42:33;19.75;;;3.47;;
63008;SDS011;49099;28.428;-16.488;2022-08-01T13:45:01;19.27;;;3.38;;
63008;SDS011;49099;28.428;-16.488;2022-08-01T13:47:40;19.50;;;3.13;;
63008;SDS011;49099;28.428;-16.488;2022-08-01T13:50:28;21.60;;;3.83;;
63008;SDS011;49099;28.428;-16.488;2022-08-01T13:52:56;24.70;;;3.53;;
63008;SDS011;49099;28.428;-16.488;2022-08-01T13:55:23;23.90;;;3.90;;
63008;SDS011;49099;28.428;-16.488;2022-08-01T13:57:50;17.70;;;3.15;;
63008;SDS011;49099;28.428;-16.488;2022-08-01T14:00:17;22.35;;;3.67;;
63008;SDS011;49099;28.428;-16.488;2022-08-01T14:02:44;17.15;;;3.38;;
63008;SDS011;49099;28.428;-16.488;2022-08-01T14:05:12;19.30;;;3.15;;
63008;SDS011;49099;28.428;-16.488;2022-08-01T14:07:39;20.90;;;3.38;;
63008;SDS011;49099;28.428;-16.488;2022-08-01T14:10:06;14.23;;;2.88;;
63008;SDS011;49099;28.428;-16.488;2022-08-01T14:12:46;19.60;;;3.08;;
63008;SDS011;49099;28.428;-16.488;2022-08-01T14:15:16;15.55;;;2.97;;
63008;SDS011;49099;28.428;-16.488;2022-08-01T14:18:04;14.10;;;3.08;;
63008;SDS011;49099;28.428;-16.488;2022-08-01T14:20:35;22.58;;;3.72;;
63008;SDS011;49099;28.428;-16.488;2022-08-01T14:23:03;23.05;;;3.55;;
63008;SDS011;49099;28.428;-16.488;2022-08-01T14:25:35;17.30;;;2.75;;
63008;SDS011;49099;28.428;-16.488;2022-08-01T14:28:23;13.93;;;3.35;;
63008;SDS011;49099;28.428;-16.488;2022-08-01T14:30:50;19.20;;;3.45;;
63008;SDS011;49099;28.428;-16.488;2022-08-01T14:33:18;12.88;;;2.90;;
63008;SDS011;49099;28.428;-16.488;2022-08-01T14:35:45;13.38;;;2.78;;
63008;SDS011;49099;28.428;-16.488;2022-08-01T14:38:32;14.02;;;3.08;;
63008;SDS011;49099;28.428;-16.488;2022-08-01T14:41:00;17.08;;;3.47;;
63008;SDS011;49099;28.428;-16.488;2022-08-01T14:43:30;13.35;;;2.90;;
63008;SDS011;49099;28.428;-16.488;2022-08-01T14:46:02;20.65;;;3.17;;
63008;SDS011;49099;28.428;-16.488;2022-08-01T14:48:30;12.70;;;2.85;;
63008;SDS011;49099;28.428;-16.488;2022-08-01T14:50:58;17.73;;;3.15;;
63008;SDS011;49099;28.428;-16.488;2022-08-01T14:53:29;15.13;;;2.65;;
63008;SDS011;49099;28.428;-16.488;2022-08-01T14:55:59;13.02;;;3.15;;
63008;SDS011;49099;28.428;-16.488;2022-08-01T14:58:26;15.75;;;3.22;;
63008;SDS011;49099;28.428;-16.488;2022-08-01T15:00:53;18.70;;;3.30;;
63008;SDS011;49099;28.428;-16.488;2022-08-01T15:03:24;13.57;;;2.75;;
63008;SDS011;49099;28.428;-16.488;2022-08-01T15:05:52;14.30;;;3.22;;
63008;SDS011;49099;28.428;-16.488;2022-08-01T15:08:19;17.27;;;3.20;;
63008;SDS011;49099;28.428;-16.488;2022-08-01T15:10:46;17.55;;;3.22;;
63008;SDS011;49099;28.428;-16.488;2022-08-01T15:13:13;17.15;;;3.17;;
63008;SDS011;49099;28.428;-16.488;2022-08-01T15:15:40;17.25;;;3.53;;
63008;SDS011;49099;28.428;-16.488;2022-08-01T15:18:08;18.63;;;3.15;;
63008;SDS011;49099;28.428;-16.488;2022-08-01T15:20:35;18.63;;;3.05;;
63008;SDS011;49099;28.428;-16.488;2022-08-01T15:23:02;20.67;;;3.75;;
63008;SDS011;49099;28.428;-16.488;2022-08-01T15:25:30;24.00;;;3.78;;
63008;SDS011;49099;28.428;-16.488;2022-08-01T15:28:07;23.38;;;3.42;;
63008;SDS011;49099;28.428;-16.488;2022-08-01T15:30:36;15.13;;;3.05;;